Dernières infos :  

11/10/2017  Mise à jour des tableaux d'analyses décadaires : rubrique climatologie
01/10/2017  Mise à jour des tableaux d'analyses décadaires, mensuelles et annuelles : rubrique climatologie
01/10/2017 Mise en ligne de la synthèse climatologique de Septembre 2017 : 
CLIQUEZ ICI   

Si l'entête du tableau ne s'affiche pas correctement, => actualisez la page (F5 avec Internet Explorer, Chrome...).
Utilisez l'ascenseur sur la droite des lignes du tableau pour faire défiler verticalement les jours du mois.

TABLEAU DES DONNEES COMPLETES NOAA DE MAI 2015

DATE TEMPERATURE
sous abri
TEMPARATURE 
au sol
VENT  et  Indice de Refroidissement Eolien  PRECIPITATIONS (en mm/m2)
et Intensité
PRESSION ATMOSPHERIQUE (en hPa) HUMIDITE de l'AIR RADIATIONS SOLAIRES (en W/m2)
Mini Moy. Maxi Mini Moy. Maxi Moyen Rafale I.R.E.
Minii
Précip. jour Cumul mois Intensité Maxi Mini Moy. Maxi Mini Moy. Maxi Pic maxi du jour Total jour
01/05/2015 11.4° 13.2° 14.2° 10.6° 12.6° 13.9° 7.9km/h dir S 43.5km/h dir S 10.4° 18.6 18.6 14mm/h 1005.9 1008 1012.9 89% 92.4% 95% 202 11 600
02/05/2015 13° 15.8° 19.4° 12.2° 16.1° 24.4° 2.3km/h dir S 33.8km/h dir S 13° 6.2 24.8 7.6mm/h 1007.8 1010.4 1012.7 69% 85.7% 96% 970 40 249
03/05/2015 14.4° 17.1° 21.5° 13.9° 16.7° 22.8° 3.2km/h dir S 27.4km/h dir S 14.4° 13.4 38.2 11.4mm/h 1006.5 1008.1 1010.5 74% 88.7% 95% 619 21 607
04/05/2015 15.4° 18.9° 23.8° 15° 18.9° 27.2° 4.3km/h dir S 37km/h dir S 15.4° 4.8 43 4.2mm/h 1002 1007.5 1010.5 68% 83.7% 96% 1148 39 488
05/05/2015 15° 18.5° 20.4° 14.4° 17.9° 21.7° 2.7km/h dir S 38.6km/h dir SSE 15.1° 1 44 1000 1006.7 1014 58% 74.8% 93% 272 13 719
06/05/2015 9.6° 15.3° 19.3° 7.2° 15.6° 24.4° 2.7km/h dir NO 29km/h dir NO 9.6° 0 44 1013.4 1016.5 1020.2 51% 73.7% 95% 1269 84 270
07/05/2015 6.2° 13.2° 18.7° 4.4° 13.2° 22.2° 1.6km/h dir NNO 20.9km/h dir NO 6.2° 0 44 1016.7 1019.3 1021.3 53% 73.1% 94% 988 72 566
08/05/2015 6.7° 13.1° 18.4° 13° 22.2° 1.3km/h dir SSO 30.6km/h dir SSO 6.7° 4.4 48.4 576mm/h 1012.9 1015.3 1019.5 66% 86.1% 96% 761 36 200
09/05/2015 11.7° 16.4° 21.4° 8.9° 16.4° 25.6° 1.3km/h dir NO 17.7km/h dir N 11.8° 0 48.4 1019.4 1022.9 1026.1 52% 77.8% 95% 1252 55 832
10/05/2015 6.9° 15.8° 24.1° 15.7° 26.7° 2.4km/h dir NO 20.9km/h dir NO 6.9° 0 48.4 1022.4 1025.1 1026.8 43% 73.4% 96% 944 83 555
11/05/2015 9.5° 19.3° 28.5° 7.2° 18.6° 31.1° 1.9km/h dir S 20.9km/h dir S 9.5° 0 48.4 1019.6 1021.5 1023 36% 65.8% 95% 937 79 470
12/05/2015 13.7° 21.4° 28.8° 10° 20.3° 31.1° 4.7km/h dir S 41.8km/h dir S 13.7° 0 48.4 1017.5 1019.1 1020.7 27% 49.6% 80% 940 81 518
13/05/2015 12.3° 21.3° 30.1° 10.6° 20.7° 31.7° 4km/h dir SSO 40.2km/h dir S 12.3° 0 48.4 1011.8 1016.4 1021.2 35% 60% 88% 870 80 968
14/05/2015 10.8° 16.6° 21° 9.4° 16.5° 25° 1.8km/h dir NO 38.6km/h dir ONO 10.8° 6.4 54.8 7.8mm/h 1009.9 1013.2 1015.1 54% 73.2% 92% 1143 55 056
15/05/2015 9.2° 10.4° 11.7° 8.3° 10.3° 13.9° 7.2km/h dir N 37km/h dir NNE 6.7° 6.4 61.2 4.2mm/h 1011.9 1014.3 1019.3 86% 90.9% 94% 432 21 452
16/05/2015 10.3° 14.5° 20.8° 10° 14.9° 24.4° 8.9km/h dir N 32.2km/h dir NNO 8.1° 0.2 61.4 1019.2 1024 1026.7 57% 79.5% 94% 1197 55 310
17/05/2015 12.2° 16.7° 21.3° 10° 17° 25° 3.9km/h dir N 24.1km/h dir N 12.2° 0 61.4 1019.6 1023.7 1026.7 51% 72.9% 93% 1125 81 526
18/05/2015 7.8° 16.4° 24.3° 5.6° 16.4° 27.2° 0.5km/h dir N 16.1km/h dir O 7.8° 0 61.4 1008 1013.3 1019.5 45% 71.6% 95% 928 88 976
19/05/2015 10.8° 14.1° 16.7° 8.9° 13.9° 20° 1.8km/h dir NO 29km/h dir NO 9.2° 0 61.4 1009.3 1011.9 1013.7 50% 73.1% 86% 937 35 023
20/05/2015 7.2° 11.4° 15.4° 11.8° 19.4° 3.5km/h dir NO 30.6km/h dir N 7.2° 0 61.4 1013.5 1016.7 1020.7 50% 70.3% 86% 1165 59 740
21/05/2015 5.9° 11.9° 18.1° 3.9° 12.3° 21.1° 11.3km/h dir N 40.2km/h dir N 4.3° 0 61.4 1020.7 1022.9 1024.8 38% 65.9% 91% 1201 84 879
22/05/2015 6.4° 14.2° 20.4° 3.3° 14.4° 23.3° 12.1km/h dir N 45.1km/h dir N 6.4° 0 61.4 1018.5 1021.7 1024.9 32% 57.8% 85% 928 91 755
23/05/2015 9.8° 15.9° 21.9° 8.3° 16.1° 25° 13.5km/h dir N 41.8km/h dir N 7.9° 0 61.4 1013.9 1015.9 1018.9 37% 59% 81% 963 81 280
24/05/2015 9.7° 17.1° 23.3° 7.8° 17.3° 26.7° 8.9km/h dir N 35.4km/h dir N 9.2° 0 61.4 1014.6 1015.4 1016 42% 63.3% 87% 1069 89 859
25/05/2015 11.3° 16.6° 22.3° 8.3° 16.7° 26.7° 3.5km/h dir NNO 29km/h dir NO 11.3° 0.2 61.6 1014 1015.2 1016.3 48% 73% 92% 1099 72 076
26/05/2015 11.1° 13.3° 16.8° 10.6° 13.9° 22.2° 9.2km/h dir N 33.8km/h dir NNE 0.4 62 1014.7 1017.9 1022 53% 76.6% 94% 1167 49 741
27/05/2015 6.8° 14.2° 20.1° 5.6° 14.4° 23.3° 9.3km/h dir N 40.2km/h dir NNO 5.7° 0 62 1019.6 1021.4 1022.7 42% 62.8% 90% 935 94 098
28/05/2015 5.9° 15.7° 24.4° 3.9° 15.8° 27.8° 0.6km/h dir NO 17.7km/h dir S 5.9° 0 62 1015.1 1017.9 1019.9 36% 64.7% 93% 960 93 290
29/05/2015 10.2° 18.2° 26.1° 7.8° 18.3° 30.6° 2.7km/h dir NO 24.1km/h dir OSO 10.2° 0 62 1010.3 1012.7 1015.2 37% 63.2% 91% 1132 84 783
30/05/2015 11° 17° 21.8° 8.3° 17.6° 27.8° 2.1km/h dir N 19.3km/h dir N 11° 0 62 1014.4 1016.2 1017.4 46% 67.1% 89% 1259 77 341
31/05/2015 13.2° 19.3° 25.2° 11.7° 19.6° 29.4° 1km/h dir SO 19.3km/h dir S 13.3° 0 62 1013.9 1015.8 1017.4 42% 63.6% 86% 988 84 541

RETOUR ACCUEIL


Date de création : 01/06/2015 : 19:36
Dernière modification : 01/06/2015 : 19:59
Catégorie : ARCHIVES 2002 à 2016 - ANNEES 2010 à 2019 - ANNEE 2015 - MAI 2015
Page lue 1590 fois


Réactions à cet article

Personne n'a encore laissé de commentaire.
Soyez donc le premier !